createdAt,value
2022-11-21T00:01:28.029Z,20.88
2022-11-21T00:03:56.586Z,20.80
2022-11-21T00:06:27.065Z,20.40
2022-11-21T00:08:56.905Z,19.65
2022-11-21T00:11:25.344Z,20.17
2022-11-21T00:13:53.848Z,19.73
2022-11-21T00:16:22.395Z,19.00
2022-11-21T00:18:50.888Z,20.05
2022-11-21T00:21:20.561Z,18.48
2022-11-21T00:23:50.435Z,19.38
2022-11-21T00:26:19.028Z,19.15
2022-11-21T00:28:47.632Z,18.38
2022-11-21T00:31:23.542Z,17.70
2022-11-21T00:33:52.161Z,19.17
2022-11-21T00:36:20.582Z,18.45
2022-11-21T00:38:50.390Z,18.08
2022-11-21T00:41:18.818Z,18.05
2022-11-21T00:43:47.388Z,18.30
2022-11-21T00:46:15.789Z,16.95
2022-11-21T00:48:44.364Z,18.08
2022-11-21T00:51:12.867Z,17.77
2022-11-21T00:53:41.882Z,17.40
2022-11-21T00:56:11.715Z,17.40
2022-11-21T00:58:40.188Z,17.02
2022-11-21T01:01:11.047Z,16.33
2022-11-21T01:03:39.565Z,17.38
2022-11-21T01:06:09.332Z,17.10
2022-11-21T01:08:39.316Z,16.02
2022-11-21T01:11:09.071Z,16.88
2022-11-21T01:13:38.871Z,16.25
2022-11-21T01:16:07.599Z,16.70
2022-11-21T01:18:36.032Z,16.15
2022-11-21T01:21:05.320Z,16.50
2022-11-21T01:23:33.773Z,15.65
2022-11-21T01:26:05.355Z,16.30
2022-11-21T01:28:34.058Z,16.10
2022-11-21T01:31:07.748Z,15.60
2022-11-21T01:33:36.428Z,16.80
2022-11-21T01:36:10.200Z,15.82
2022-11-21T01:38:38.836Z,15.10
2022-11-21T01:41:07.503Z,14.82
2022-11-21T01:43:36.005Z,15.40
2022-11-21T01:46:10.521Z,14.70
2022-11-21T01:48:41.634Z,15.18
2022-11-21T01:51:15.364Z,14.93
2022-11-21T01:53:44.273Z,14.32
2022-11-21T01:56:12.753Z,15.32
2022-11-21T01:58:41.231Z,14.82
2022-11-21T02:01:11.190Z,13.75
2022-11-21T02:03:39.967Z,14.30
2022-11-21T02:06:08.585Z,14.40
2022-11-21T02:08:37.077Z,14.25
2022-11-21T02:11:15.626Z,14.80
2022-11-21T02:13:44.360Z,14.43
2022-11-21T02:16:14.231Z,14.50
2022-11-21T02:18:42.655Z,13.77
2022-11-21T02:21:17.981Z,13.93
2022-11-21T02:23:50.593Z,14.27
2022-11-21T02:26:20.429Z,13.57
2022-11-21T02:28:48.912Z,13.48
2022-11-21T02:31:17.336Z,14.07
2022-11-21T02:33:45.850Z,12.68
2022-11-21T02:36:40.309Z,14.20
2022-11-21T02:39:10.329Z,13.68
2022-11-21T02:41:43.063Z,13.40
2022-11-21T02:44:17.276Z,13.57
2022-11-21T02:46:49.317Z,13.48
2022-11-21T02:49:20.033Z,13.07
2022-11-21T02:51:48.746Z,13.60
2022-11-21T02:54:17.423Z,13.48
2022-11-21T02:56:47.243Z,13.25
2022-11-21T02:59:15.713Z,13.20
2022-11-21T03:01:44.235Z,13.43
2022-11-21T03:04:12.648Z,13.13
2022-11-21T03:06:41.188Z,13.48
2022-11-21T03:09:09.845Z,12.43
2022-11-21T03:11:38.327Z,12.88
2022-11-21T03:14:08.277Z,12.55
2022-11-21T03:16:36.739Z,12.40
2022-11-21T03:19:05.348Z,11.77
2022-11-21T03:21:33.891Z,12.70
2022-11-21T03:24:02.328Z,11.98
2022-11-21T03:26:30.823Z,12.10
2022-11-21T03:28:59.243Z,12.75
2022-11-21T03:31:29.061Z,11.68
2022-11-21T03:33:57.526Z,11.48
2022-11-21T03:36:26.140Z,12.10
2022-11-21T03:38:56.131Z,12.02
2022-11-21T03:41:30.875Z,12.25
2022-11-21T03:44:02.161Z,11.75
2022-11-21T03:46:33.132Z,11.65
2022-11-21T03:49:01.593Z,11.77
2022-11-21T03:51:30.190Z,12.32
2022-11-21T03:53:58.807Z,12.15
2022-11-21T03:56:27.434Z,12.18
2022-11-21T03:58:56.001Z,11.98
2022-11-21T04:01:26.391Z,11.65
2022-11-21T04:03:56.215Z,11.85
2022-11-21T04:06:24.820Z,11.48
2022-11-21T04:08:53.415Z,11.30
2022-11-21T04:11:23.725Z,11.68
2022-11-21T04:13:52.187Z,11.02
2022-11-21T04:16:20.686Z,11.05
2022-11-21T04:18:49.139Z,11.30
2022-11-21T04:21:18.970Z,11.65
2022-11-21T04:23:47.425Z,10.68
2022-11-21T04:26:17.024Z,11.32
2022-11-21T04:28:45.635Z,11.13
2022-11-21T04:31:14.395Z,11.10
2022-11-21T04:33:43.057Z,11.15
2022-11-21T04:36:11.482Z,11.68
2022-11-21T04:38:41.253Z,10.93
2022-11-21T04:41:09.428Z,11.75
2022-11-21T04:43:37.891Z,10.90
2022-11-21T04:46:06.128Z,10.75
2022-11-21T04:48:34.557Z,10.98
2022-11-21T04:51:02.989Z,10.43
2022-11-21T04:53:31.455Z,10.63
2022-11-21T04:56:01.457Z,10.20
2022-11-21T04:58:29.649Z,10.57
2022-11-21T05:00:58.143Z,10.73
2022-11-21T05:03:26.612Z,11.63
2022-11-21T05:05:55.096Z,10.07
2022-11-21T05:08:23.567Z,10.60
2022-11-21T05:11:09.663Z,10.52
2022-11-21T05:13:39.418Z,11.35
2022-11-21T05:16:08.143Z,9.52
2022-11-21T05:18:36.668Z,9.65
2022-11-21T05:21:05.277Z,9.73
2022-11-21T05:23:33.764Z,10.05
2022-11-21T05:26:02.293Z,9.05
2022-11-21T05:28:30.760Z,10.23
2022-11-21T05:31:00.545Z,9.93
2022-11-21T05:33:29.005Z,9.48
2022-11-21T05:35:57.460Z,9.43
2022-11-21T05:38:25.915Z,9.60
2022-11-21T05:40:54.478Z,9.35
2022-11-21T05:43:40.658Z,9.95
2022-11-21T05:46:10.634Z,9.98
2022-11-21T05:48:40.239Z,9.65
2022-11-21T05:51:08.921Z,9.18
2022-11-21T05:53:37.374Z,10.13
2022-11-21T05:56:07.520Z,9.23
2022-11-21T05:58:35.972Z,10.00
2022-11-21T06:01:05.120Z,9.60
2022-11-21T06:03:35.857Z,9.80
2022-11-21T06:06:06.889Z,9.80
2022-11-21T06:08:36.743Z,10.00
2022-11-21T06:11:05.578Z,9.30
2022-11-21T06:13:34.473Z,9.75
2022-11-21T06:16:04.416Z,9.38
2022-11-21T06:18:35.199Z,9.65
2022-11-21T06:21:04.565Z,9.93
2022-11-21T06:23:33.008Z,10.18
2022-11-21T06:26:03.444Z,10.18
2022-11-21T06:28:33.691Z,10.02
2022-11-21T06:31:04.911Z,10.00
2022-11-21T06:33:34.969Z,10.18
2022-11-21T06:36:04.460Z,9.85
2022-11-21T06:38:33.030Z,12.32
2022-11-21T06:41:06.134Z,11.68
2022-11-21T06:43:34.590Z,10.90
2022-11-21T06:46:04.128Z,11.02
2022-11-21T06:48:34.072Z,11.18
2022-11-21T06:51:06.455Z,10.57
2022-11-21T06:53:37.570Z,12.32
2022-11-21T06:56:06.446Z,12.70
2022-11-21T06:58:35.005Z,11.25
2022-11-21T07:01:06.536Z,11.00
2022-11-21T07:03:37.753Z,11.00
2022-11-21T07:06:06.767Z,11.27
2022-11-21T07:08:36.397Z,12.85
2022-11-21T07:13:54.839Z,11.65
2022-11-21T07:16:26.177Z,13.77
2022-11-21T07:18:56.334Z,12.18
2022-11-21T07:21:24.783Z,11.80
2022-11-21T07:23:53.381Z,11.57
2022-11-21T07:26:21.983Z,11.20
2022-11-21T07:28:50.418Z,12.07
2022-11-21T07:31:19.073Z,11.55
2022-11-21T07:33:48.311Z,11.35
2022-11-21T07:36:18.200Z,11.00
2022-11-21T07:38:47.819Z,11.43
2022-11-21T07:41:16.297Z,11.73
2022-11-21T07:43:45.855Z,11.38
2022-11-21T07:46:14.445Z,11.25
2022-11-21T07:48:44.219Z,11.90
2022-11-21T07:51:12.664Z,11.43
2022-11-21T07:53:42.578Z,11.63
2022-11-21T07:56:11.058Z,11.95
2022-11-21T07:58:40.657Z,11.60
2022-11-21T08:01:09.354Z,11.30
2022-11-21T08:03:37.834Z,11.90
2022-11-21T08:06:06.526Z,11.27
2022-11-21T08:08:35.002Z,10.35
2022-11-21T08:11:07.486Z,11.20
2022-11-21T08:13:39.141Z,11.00
2022-11-21T08:16:08.161Z,12.13
2022-11-21T08:18:36.670Z,11.45
2022-11-21T08:21:05.915Z,11.57
2022-11-21T08:23:36.476Z,11.13
2022-11-21T08:26:10.051Z,12.05
2022-11-21T08:28:39.451Z,11.88
2022-11-21T08:31:11.320Z,11.48
2022-11-21T08:33:39.844Z,12.25
2022-11-21T08:36:09.243Z,11.45
2022-11-21T08:38:37.827Z,11.80
2022-11-21T08:41:25.388Z,11.00
2022-11-21T08:43:53.875Z,10.77
2022-11-21T08:46:22.364Z,11.82
2022-11-21T08:48:51.617Z,11.45
2022-11-21T08:51:20.267Z,10.52
2022-11-21T08:53:49.770Z,11.73
2022-11-21T08:56:19.953Z,11.30
2022-11-21T08:58:48.447Z,11.10
2022-11-21T09:01:17.013Z,11.93
2022-11-21T09:03:45.607Z,10.75
2022-11-21T09:06:14.211Z,10.98
2022-11-21T09:08:42.701Z,12.02
2022-11-21T09:11:11.541Z,11.80
2022-11-21T09:13:41.479Z,11.60
2022-11-21T09:16:30.276Z,11.45
2022-11-21T09:18:58.943Z,11.88
2022-11-21T09:21:27.467Z,11.05
2022-11-21T09:23:55.929Z,11.80
2022-11-21T09:26:24.478Z,11.77
2022-11-21T09:28:54.391Z,11.35
2022-11-21T09:31:22.879Z,11.35
2022-11-21T09:33:54.977Z,11.02
2022-11-21T09:36:23.746Z,11.32
2022-11-21T09:38:54.005Z,11.73
2022-11-21T09:41:45.902Z,13.20
2022-11-21T09:44:21.473Z,18.05
2022-11-21T09:46:50.563Z,18.70
2022-11-21T09:49:19.102Z,17.63
2022-11-21T09:51:47.575Z,15.77
2022-11-21T09:54:19.607Z,15.20
2022-11-21T09:56:48.054Z,14.90
2022-11-21T09:59:30.235Z,16.92
2022-11-21T10:01:58.770Z,17.02
2022-11-21T10:04:27.972Z,15.05
2022-11-21T10:07:03.287Z,14.90
2022-11-21T10:09:53.982Z,15.50
2022-11-21T10:12:38.744Z,16.40
2022-11-21T10:15:28.167Z,14.75
2022-11-21T10:18:14.846Z,14.82
2022-11-21T10:20:54.151Z,15.25
2022-11-21T10:23:36.690Z,14.52
2022-11-21T10:26:17.212Z,14.27
2022-11-21T10:28:52.660Z,14.93
2022-11-21T10:31:23.056Z,14.88
2022-11-21T10:33:51.700Z,14.00
2022-11-21T10:36:28.012Z,14.60
2022-11-21T10:39:01.023Z,14.30
2022-11-21T10:41:41.652Z,14.30
2022-11-21T10:44:42.055Z,14.35
2022-11-21T10:47:28.433Z,13.77
2022-11-21T10:50:04.605Z,14.23
2022-11-21T10:52:35.403Z,14.85
2022-11-21T10:55:10.202Z,14.57
2022-11-21T10:57:42.295Z,14.77
2022-11-21T11:00:23.538Z,12.88
2022-11-21T11:03:06.537Z,13.20
2022-11-21T11:05:36.781Z,13.00
2022-11-21T11:08:08.725Z,13.10
2022-11-21T11:10:38.470Z,13.85
2022-11-21T11:13:49.444Z,13.30
2022-11-21T11:16:21.619Z,14.30
2022-11-21T11:18:58.670Z,13.70
2022-11-21T11:21:28.545Z,13.45
2022-11-21T11:24:20.415Z,13.68
2022-11-21T11:26:53.793Z,13.02
2022-11-21T11:29:23.524Z,12.35
2022-11-21T11:31:55.887Z,13.40
2022-11-21T11:34:27.343Z,12.52
2022-11-21T11:36:57.947Z,11.63
2022-11-21T11:39:38.280Z,12.63
2022-11-21T11:43:04.899Z,12.95
2022-11-21T11:46:27.342Z,12.82
2022-11-21T11:51:52.598Z,12.32
2022-11-21T11:54:23.330Z,13.07
2022-11-21T11:56:52.042Z,12.85
2022-11-21T11:59:23.721Z,12.23
2022-11-21T12:01:55.051Z,12.68
2022-11-21T12:04:25.155Z,12.75
2022-11-21T12:09:49.878Z,11.85
2022-11-21T12:12:22.894Z,12.52
2022-11-21T12:15:20.900Z,12.27
2022-11-21T12:17:54.004Z,12.18
2022-11-21T12:20:24.490Z,11.85
2022-11-21T12:22:54.496Z,12.10
2022-11-21T12:25:26.673Z,12.68
2022-11-21T12:27:56.314Z,11.43
2022-11-21T12:30:48.691Z,12.18
2022-11-21T12:33:22.165Z,11.63
2022-11-21T12:36:19.096Z,11.07
2022-11-21T12:39:30.763Z,11.63
2022-11-21T12:42:19.123Z,10.95
2022-11-21T12:45:03.144Z,11.15
2022-11-21T12:48:09.696Z,11.18
2022-11-21T12:51:00.320Z,11.20
2022-11-21T12:53:49.218Z,10.95
2022-11-21T12:56:24.168Z,10.65
2022-11-21T12:58:52.665Z,11.27
2022-11-21T13:01:25.322Z,10.98
2022-11-21T13:03:59.986Z,10.32
2022-11-21T13:06:29.867Z,10.85
2022-11-21T13:08:59.524Z,10.35
2022-11-21T13:12:08.692Z,10.70
2022-11-21T13:14:43.448Z,10.88
2022-11-21T13:17:29.286Z,10.70
2022-11-21T13:19:59.244Z,10.75
2022-11-21T13:22:54.388Z,10.15
2022-11-21T13:25:40.805Z,10.30
2022-11-21T13:28:33.924Z,9.98
2022-11-21T13:31:03.960Z,10.25
2022-11-21T13:33:57.103Z,10.57
2022-11-21T13:36:44.236Z,10.02
2022-11-21T13:39:35.424Z,9.77
2022-11-21T13:42:29.476Z,10.20
2022-11-21T13:44:59.544Z,9.63
2022-11-21T13:48:20.259Z,10.10
2022-11-21T13:51:31.331Z,9.40
2022-11-21T13:54:58.364Z,9.60
2022-11-21T13:57:49.785Z,8.95
2022-11-21T14:00:32.392Z,8.57
2022-11-21T14:03:31.594Z,8.50
2022-11-21T14:06:37.430Z,9.07
2022-11-21T14:09:23.000Z,9.00
2022-11-21T14:11:52.609Z,8.73
2022-11-21T14:14:34.776Z,9.52
2022-11-21T14:17:30.091Z,9.48
2022-11-21T14:20:00.722Z,9.00
2022-11-21T14:22:39.806Z,8.93
2022-11-21T14:25:16.734Z,9.25
2022-11-21T14:27:47.969Z,9.02
2022-11-21T14:30:37.073Z,8.82
2022-11-21T14:33:34.479Z,8.63
2022-11-21T14:36:08.027Z,8.32
2022-11-21T14:38:42.810Z,8.45
2022-11-21T14:41:31.792Z,8.77
2022-11-21T14:44:15.186Z,8.07
2022-11-21T14:46:44.084Z,8.80
2022-11-21T14:49:34.813Z,8.60
2022-11-21T14:52:19.826Z,8.80
2022-11-21T14:57:42.710Z,8.50
2022-11-21T15:03:05.471Z,8.88
2022-11-21T15:11:13.997Z,8.73
2022-11-21T15:14:12.154Z,7.68
2022-11-21T15:16:31.222Z,7.68
2022-11-21T15:18:59.709Z,8.30
2022-11-21T15:21:29.751Z,7.70
2022-11-21T15:23:58.287Z,8.13
2022-11-21T15:26:31.584Z,8.52
2022-11-21T15:29:01.119Z,7.28
2022-11-21T15:31:29.591Z,7.72
2022-11-21T15:34:33.217Z,7.15
2022-11-21T15:37:05.726Z,7.57
2022-11-21T15:39:34.504Z,6.65
2022-11-21T15:42:37.169Z,7.15
2022-11-21T15:45:25.540Z,7.55
2022-11-21T15:47:55.704Z,7.60
2022-11-21T15:50:25.093Z,7.63
2022-11-21T15:52:57.345Z,7.63
2022-11-21T15:55:29.438Z,7.47
2022-11-21T15:57:58.090Z,6.88
2022-11-21T16:00:26.606Z,7.25
2022-11-21T16:02:55.328Z,6.95
2022-11-21T16:05:24.987Z,7.32
2022-11-21T16:07:54.941Z,7.25
2022-11-21T16:10:27.742Z,6.85
2022-11-21T16:12:57.752Z,6.65
2022-11-21T16:15:26.275Z,7.55
2022-11-21T16:17:54.965Z,7.00
2022-11-21T16:20:23.493Z,7.40
2022-11-21T16:22:54.071Z,7.00
2022-11-21T16:25:22.564Z,7.32
2022-11-21T16:27:52.942Z,7.30
2022-11-21T16:30:21.686Z,7.00
2022-11-21T16:32:51.377Z,8.70
2022-11-21T16:35:19.905Z,9.50
2022-11-21T16:37:48.489Z,8.55
2022-11-21T16:40:18.864Z,11.45
2022-11-21T16:42:47.308Z,14.75
2022-11-21T16:45:15.954Z,13.23
2022-11-21T16:47:48.725Z,11.10
2022-11-21T16:50:18.467Z,12.73
2022-11-21T16:52:46.945Z,12.77
2022-11-21T16:55:17.025Z,11.90
2022-11-21T16:57:45.546Z,13.00
2022-11-21T17:00:15.210Z,11.20
2022-11-21T17:02:43.705Z,11.38
2022-11-21T17:05:12.235Z,10.02
2022-11-21T17:07:40.862Z,11.27
2022-11-21T17:10:10.365Z,11.32
2022-11-21T17:12:40.456Z,10.70
2022-11-21T17:15:10.886Z,10.35
2022-11-21T17:17:39.501Z,9.98
2022-11-21T17:20:09.989Z,9.90
2022-11-21T17:22:38.389Z,10.00
2022-11-21T17:25:08.231Z,9.60
2022-11-21T17:27:36.694Z,9.90
2022-11-21T17:30:08.433Z,9.07
2022-11-21T17:32:37.415Z,9.05
2022-11-21T17:35:07.078Z,8.20
2022-11-21T17:37:35.702Z,9.18
2022-11-21T17:40:06.687Z,9.23
2022-11-21T17:42:35.178Z,8.38
2022-11-21T17:45:03.697Z,9.10
2022-11-21T17:47:35.622Z,8.80
2022-11-21T17:50:06.222Z,9.20
2022-11-21T17:52:35.036Z,9.15
2022-11-21T17:55:03.499Z,8.38
2022-11-21T17:57:31.991Z,8.95
2022-11-21T18:00:00.515Z,8.15
2022-11-21T18:02:29.190Z,8.43
2022-11-21T18:04:59.160Z,8.45
2022-11-21T18:07:27.788Z,8.57
2022-11-21T18:10:09.268Z,8.00
2022-11-21T18:12:45.072Z,7.80
2022-11-21T18:15:13.685Z,7.60
2022-11-21T18:17:43.064Z,9.02
2022-11-21T18:20:13.270Z,9.13
2022-11-21T18:22:41.744Z,9.93
2022-11-21T18:25:10.754Z,12.43
2022-11-21T18:27:39.188Z,13.93
2022-11-21T18:30:09.412Z,12.00
2022-11-21T18:32:38.140Z,13.10
2022-11-21T18:35:07.089Z,15.10
2022-11-21T18:37:38.208Z,13.80
2022-11-21T18:40:08.237Z,12.70
2022-11-21T18:42:37.101Z,13.70
2022-11-21T18:45:06.403Z,13.63
2022-11-21T18:47:34.898Z,12.85
2022-11-21T18:50:03.399Z,13.35
2022-11-21T18:52:34.173Z,12.23
2022-11-21T18:55:04.100Z,13.68
2022-11-21T18:57:35.912Z,13.07
2022-11-21T19:00:06.306Z,12.43
2022-11-21T19:02:34.887Z,12.65
2022-11-21T19:05:03.501Z,13.63
2022-11-21T19:07:32.120Z,12.95
2022-11-21T19:10:20.651Z,13.52
2022-11-21T19:12:50.698Z,12.10
2022-11-21T19:15:19.523Z,12.63
2022-11-21T19:17:48.099Z,12.55
2022-11-21T19:20:17.284Z,12.55
2022-11-21T19:22:45.743Z,12.20
2022-11-21T19:25:17.233Z,12.52
2022-11-21T19:27:48.445Z,11.95
2022-11-21T19:30:18.621Z,12.07
2022-11-21T19:32:47.242Z,12.43
2022-11-21T19:35:15.840Z,15.52
2022-11-21T19:37:44.474Z,21.00
2022-11-21T19:40:13.934Z,20.65
2022-11-21T19:42:42.796Z,19.25
2022-11-21T19:45:14.136Z,19.10
2022-11-21T19:47:46.003Z,20.30
2022-11-21T19:50:15.418Z,19.60
2022-11-21T19:52:43.955Z,20.73
2022-11-21T19:55:12.572Z,18.77
2022-11-21T19:57:41.098Z,17.65
2022-11-21T20:00:10.985Z,15.55
2022-11-21T20:02:39.582Z,17.15
2022-11-21T20:05:10.533Z,16.50
2022-11-21T20:07:39.135Z,16.23
2022-11-21T20:10:08.712Z,16.83
2022-11-21T20:12:37.400Z,17.55
2022-11-21T20:15:06.956Z,16.67
2022-11-21T20:17:35.611Z,17.95
2022-11-21T20:20:04.307Z,16.23
2022-11-21T20:22:34.291Z,16.40
2022-11-21T20:25:03.090Z,14.90
2022-11-21T20:27:32.688Z,14.35
2022-11-21T20:30:01.178Z,14.80
2022-11-21T20:32:29.808Z,14.50
2022-11-21T20:34:58.428Z,13.63
2022-11-21T20:37:27.341Z,14.05
2022-11-21T20:39:57.353Z,14.18
2022-11-21T20:42:25.927Z,14.70
2022-11-21T20:45:54.395Z,13.45
2022-11-21T20:47:42.824Z,13.48
2022-11-21T20:50:21.462Z,14.52
2022-11-21T20:55:49.995Z,13.85
2022-11-21T20:58:18.482Z,13.30
2022-11-21T21:00:47.045Z,13.85
2022-11-21T21:03:15.607Z,13.73
2022-11-21T21:05:44.833Z,13.48
2022-11-21T21:08:13.332Z,13.80
2022-11-21T21:11:04.636Z,15.85
2022-11-21T21:13:32.617Z,16.98
2022-11-21T21:16:06.040Z,16.23
2022-11-21T21:18:34.925Z,18.15
2022-11-21T21:21:17.071Z,18.08
2022-11-21T21:23:48.325Z,17.98
2022-11-21T21:26:18.281Z,16.95
2022-11-21T21:28:48.367Z,17.63
2022-11-21T21:31:22.080Z,16.58
2022-11-21T21:33:50.571Z,16.50
2022-11-21T21:36:20.626Z,16.98
2022-11-21T21:38:54.280Z,16.38
2022-11-21T21:41:23.434Z,16.02
2022-11-21T21:43:54.099Z,17.20
2022-11-21T21:46:25.609Z,15.23
2022-11-21T21:48:56.009Z,15.85
2022-11-21T21:51:25.743Z,16.00
2022-11-21T21:53:54.914Z,15.40
2022-11-21T21:56:24.620Z,15.15
2022-11-21T21:58:54.645Z,16.15
2022-11-21T22:01:24.031Z,14.80
2022-11-21T22:03:54.357Z,15.88
2022-11-21T22:06:22.950Z,15.73
2022-11-21T22:08:51.683Z,15.10
2022-11-21T22:11:21.439Z,14.05
2022-11-21T22:13:54.258Z,15.30
2022-11-21T22:16:22.852Z,14.00
2022-11-21T22:18:51.309Z,14.55
2022-11-21T22:21:21.228Z,14.48
2022-11-21T22:24:23.511Z,15.60
2022-11-21T22:26:38.478Z,17.35
2022-11-21T22:29:08.363Z,19.25
2022-11-21T22:31:37.528Z,16.20
2022-11-21T22:34:06.412Z,15.88
2022-11-21T22:36:34.906Z,16.00
2022-11-21T22:39:03.403Z,15.23
2022-11-21T22:41:31.989Z,15.73
2022-11-21T22:44:01.003Z,16.00
2022-11-21T22:46:31.695Z,16.15
2022-11-21T22:49:00.567Z,16.05
2022-11-21T22:51:30.403Z,16.10
2022-11-21T22:53:58.929Z,16.50
2022-11-21T22:56:28.172Z,14.95
2022-11-21T22:58:57.162Z,16.63
2022-11-21T23:01:26.997Z,15.65
2022-11-21T23:03:56.927Z,16.05
2022-11-21T23:06:26.797Z,14.90
2022-11-21T23:08:56.035Z,15.68
2022-11-21T23:11:26.308Z,15.27
2022-11-21T23:13:55.461Z,14.30
2022-11-21T23:16:24.504Z,15.27
2022-11-21T23:18:53.864Z,15.57
2022-11-21T23:21:23.976Z,15.88
2022-11-21T23:23:52.427Z,15.82
2022-11-21T23:26:21.275Z,15.60
2022-11-21T23:28:49.700Z,15.82
2022-11-21T23:31:18.307Z,14.85
2022-11-21T23:33:47.003Z,14.95
2022-11-21T23:36:15.412Z,14.82
2022-11-21T23:38:46.280Z,15.10
2022-11-21T23:41:14.728Z,15.20
2022-11-21T23:43:43.284Z,15.38
2022-11-21T23:46:11.807Z,15.50
2022-11-21T23:48:40.353Z,15.48
2022-11-21T23:51:08.810Z,15.43
2022-11-21T23:53:40.160Z,15.57
2022-11-21T23:56:10.174Z,14.80
2022-11-21T23:58:39.501Z,15.77
